createdAt,value
2019-05-20T00:00:34.124Z,17.70
2019-05-20T00:01:34.145Z,17.60
2019-05-20T00:02:34.162Z,18.00
2019-05-20T00:03:34.185Z,17.40
2019-05-20T00:04:34.206Z,17.50
2019-05-20T00:05:34.257Z,17.90
2019-05-20T00:06:34.249Z,18.40
2019-05-20T00:07:34.269Z,18.30
2019-05-20T00:08:34.286Z,18.60
2019-05-20T00:09:34.313Z,18.70
2019-05-20T00:10:34.330Z,17.90
2019-05-20T00:11:34.350Z,17.60
2019-05-20T00:12:34.374Z,18.20
2019-05-20T00:13:34.391Z,17.90
2019-05-20T00:14:34.413Z,18.00
2019-05-20T00:15:34.432Z,17.50
2019-05-20T00:16:34.457Z,16.70
2019-05-20T00:17:34.495Z,17.50
2019-05-20T00:18:34.494Z,17.80
2019-05-20T00:19:34.516Z,17.50
2019-05-20T00:20:34.537Z,18.30
2019-05-20T00:21:34.560Z,18.20
2019-05-20T00:22:34.577Z,18.50
2019-05-20T00:23:34.597Z,18.80
2019-05-20T00:24:34.615Z,17.60
2019-05-20T00:25:34.639Z,17.80
2019-05-20T00:26:34.661Z,18.80
2019-05-20T00:27:34.680Z,18.60
2019-05-20T00:28:34.700Z,18.00
2019-05-20T00:29:34.720Z,17.70
2019-05-20T00:30:34.743Z,17.90
2019-05-20T00:31:34.762Z,19.40
2019-05-20T00:32:40.967Z,18.90
2019-05-20T00:33:34.804Z,18.70
2019-05-20T00:34:35.741Z,17.70
2019-05-20T00:35:34.847Z,18.50
2019-05-20T00:36:34.873Z,18.60
2019-05-20T00:37:34.889Z,19.30
2019-05-20T00:38:34.911Z,19.00
2019-05-20T00:39:34.926Z,18.30
2019-05-20T00:40:34.950Z,19.00
2019-05-20T00:41:34.968Z,18.00
2019-05-20T00:42:34.989Z,17.80
2019-05-20T00:43:35.023Z,18.60
2019-05-20T00:44:35.031Z,18.50
2019-05-20T00:45:35.049Z,18.40
2019-05-20T00:46:35.109Z,19.00
2019-05-20T00:47:35.092Z,19.00
2019-05-20T00:48:35.116Z,19.10
2019-05-20T00:49:35.132Z,19.00
2019-05-20T00:50:35.155Z,17.80
2019-05-20T00:51:35.176Z,17.30
2019-05-20T00:52:35.196Z,17.10
2019-05-20T00:53:35.215Z,18.60
2019-05-20T00:54:35.235Z,17.80
2019-05-20T00:55:35.256Z,18.00
2019-05-20T00:56:35.278Z,17.60
2019-05-20T00:57:35.299Z,17.80
2019-05-20T00:58:35.316Z,18.10
2019-05-20T00:59:35.343Z,18.10
2019-05-20T01:00:35.442Z,18.80
2019-05-20T01:01:35.452Z,17.80
2019-05-20T01:02:35.438Z,17.70
2019-05-20T01:03:35.487Z,18.20
2019-05-20T01:04:35.502Z,17.60
2019-05-20T01:05:35.494Z,18.60
2019-05-20T01:06:35.497Z,18.00
2019-05-20T01:07:35.510Z,17.90
2019-05-20T01:08:35.523Z,17.40
2019-05-20T01:09:35.542Z,18.30
2019-05-20T01:10:35.564Z,18.70
2019-05-20T01:11:35.586Z,17.80
2019-05-20T01:12:35.601Z,18.20
2019-05-20T01:13:35.626Z,18.10
2019-05-20T01:14:35.645Z,18.40
2019-05-20T01:15:35.664Z,18.10
2019-05-20T01:16:35.689Z,17.60
2019-05-20T01:17:35.705Z,17.90
2019-05-20T01:18:35.726Z,17.50
2019-05-20T01:19:35.748Z,18.40
2019-05-20T01:20:35.767Z,17.50
2019-05-20T01:21:35.786Z,16.80
2019-05-20T01:22:35.810Z,17.80
2019-05-20T01:23:35.829Z,18.30
2019-05-20T01:24:35.850Z,17.00
2019-05-20T01:25:35.870Z,18.30
2019-05-20T01:26:35.890Z,18.10
2019-05-20T01:27:35.911Z,16.90
2019-05-20T01:28:35.933Z,18.10
2019-05-20T01:29:35.951Z,18.40
2019-05-20T01:30:35.971Z,17.10
2019-05-20T01:31:35.993Z,17.70
2019-05-20T01:32:36.018Z,17.90
2019-05-20T01:33:36.032Z,17.70
2019-05-20T01:34:36.053Z,17.30
2019-05-20T01:35:36.077Z,17.10
2019-05-20T01:36:36.092Z,17.50
2019-05-20T01:37:36.112Z,18.40
2019-05-20T01:38:36.135Z,17.20
2019-05-20T01:39:36.161Z,17.20
2019-05-20T01:40:36.175Z,17.40
2019-05-20T01:41:36.195Z,17.60
2019-05-20T01:42:36.216Z,17.20
2019-05-20T01:43:36.245Z,18.00
2019-05-20T01:44:36.256Z,17.60
2019-05-20T01:45:36.277Z,17.80
2019-05-20T01:46:36.298Z,16.40
2019-05-20T01:47:36.320Z,17.10
2019-05-20T01:48:36.336Z,17.40
2019-05-20T01:49:36.357Z,17.70
2019-05-20T01:50:36.382Z,16.70
2019-05-20T01:51:36.397Z,17.20
2019-05-20T01:52:36.420Z,17.30
2019-05-20T01:53:36.443Z,17.00
2019-05-20T01:54:36.461Z,17.20
2019-05-20T01:55:36.485Z,16.90
2019-05-20T01:56:36.501Z,17.00
2019-05-20T01:57:36.522Z,16.70
2019-05-20T01:58:39.298Z,17.10
2019-05-20T01:59:36.564Z,16.30
2019-05-20T02:00:36.602Z,16.90
2019-05-20T02:01:36.603Z,16.70
2019-05-20T02:02:36.625Z,16.00
2019-05-20T02:03:36.652Z,16.40
2019-05-20T02:04:36.665Z,16.80
2019-05-20T02:05:36.685Z,17.10
2019-05-20T02:06:36.707Z,17.00
2019-05-20T02:07:36.733Z,17.80
2019-05-20T02:08:36.746Z,16.70
2019-05-20T02:09:36.767Z,16.50
2019-05-20T02:10:36.788Z,16.50
2019-05-20T02:11:36.811Z,16.50
2019-05-20T02:12:36.833Z,16.40
2019-05-20T02:13:36.847Z,17.30
2019-05-20T02:14:36.870Z,16.90
2019-05-20T02:15:36.891Z,17.50
2019-05-20T02:16:36.921Z,17.60
2019-05-20T02:17:36.935Z,17.50
2019-05-20T02:18:36.952Z,16.80
2019-05-20T02:19:36.972Z,16.40
2019-05-20T02:20:36.993Z,16.80
2019-05-20T02:21:37.013Z,17.20
2019-05-20T02:22:37.035Z,16.80
2019-05-20T02:23:37.052Z,17.30
2019-05-20T02:24:37.069Z,15.60
2019-05-20T02:25:37.102Z,16.80
2019-05-20T02:26:37.116Z,17.00
2019-05-20T02:27:37.138Z,17.60
2019-05-20T02:28:37.154Z,17.90
2019-05-20T02:29:37.176Z,17.90
2019-05-20T02:30:37.202Z,17.80
2019-05-20T02:31:37.218Z,18.20
2019-05-20T02:32:37.323Z,18.10
2019-05-20T02:33:51.020Z,17.90
2019-05-20T02:34:37.322Z,16.70
2019-05-20T02:35:37.325Z,17.60
2019-05-20T02:36:37.384Z,15.70
2019-05-20T02:37:37.381Z,16.70
2019-05-20T02:38:37.386Z,16.70
2019-05-20T02:39:37.393Z,17.10
2019-05-20T02:40:37.401Z,16.40
2019-05-20T02:41:37.420Z,17.10
2019-05-20T02:42:37.439Z,16.20
2019-05-20T02:43:37.461Z,15.90
2019-05-20T02:44:37.483Z,16.90
2019-05-20T02:45:37.502Z,16.30
2019-05-20T02:46:37.525Z,15.90
2019-05-20T02:47:37.542Z,15.80
2019-05-20T02:48:37.572Z,16.10
2019-05-20T02:49:37.585Z,16.30
2019-05-20T02:50:37.608Z,17.10
2019-05-20T02:51:37.624Z,17.20
2019-05-20T02:52:37.671Z,16.60
2019-05-20T02:53:37.667Z,16.80
2019-05-20T02:54:37.686Z,15.90
2019-05-20T02:55:37.709Z,16.50
2019-05-20T02:56:37.725Z,16.60
2019-05-20T02:57:37.751Z,17.00
2019-05-20T02:58:37.769Z,16.20
2019-05-20T02:59:37.785Z,16.60
2019-05-20T03:00:37.804Z,16.70
2019-05-20T03:01:37.826Z,16.00
2019-05-20T03:02:37.848Z,16.60
2019-05-20T03:03:37.872Z,16.50
2019-05-20T03:04:37.888Z,16.10
2019-05-20T03:05:37.909Z,17.20
2019-05-20T03:06:37.932Z,15.50
2019-05-20T03:07:37.949Z,16.10
2019-05-20T03:08:37.968Z,15.50
2019-05-20T03:09:37.990Z,16.50
2019-05-20T03:10:38.023Z,17.20
2019-05-20T03:11:38.033Z,16.10
2019-05-20T03:12:38.052Z,16.30
2019-05-20T03:13:38.070Z,16.60
2019-05-20T03:14:38.090Z,16.90
2019-05-20T03:15:38.113Z,16.00
2019-05-20T03:16:38.140Z,16.20
2019-05-20T03:17:38.154Z,16.10
2019-05-20T03:18:38.171Z,17.50
2019-05-20T03:19:38.194Z,17.80
2019-05-20T03:20:38.215Z,16.20
2019-05-20T03:21:38.238Z,16.90
2019-05-20T03:22:38.252Z,17.40
2019-05-20T03:23:38.278Z,16.60
2019-05-20T03:24:38.292Z,17.40
2019-05-20T03:25:38.311Z,16.80
2019-05-20T03:26:38.335Z,16.70
2019-05-20T03:27:38.357Z,16.30
2019-05-20T03:28:38.375Z,16.70
2019-05-20T03:29:38.399Z,16.40
2019-05-20T03:30:38.429Z,15.70
2019-05-20T03:31:38.436Z,15.80
2019-05-20T03:32:38.461Z,15.70
2019-05-20T03:33:38.482Z,16.00
2019-05-20T03:34:48.020Z,17.20
2019-05-20T03:35:38.515Z,16.70
2019-05-20T03:36:38.536Z,16.20
2019-05-20T03:37:38.557Z,16.30
2019-05-20T03:38:38.577Z,15.70
2019-05-20T03:39:38.598Z,15.10
2019-05-20T03:40:38.622Z,16.20
2019-05-20T03:41:38.637Z,15.90
2019-05-20T03:42:38.659Z,16.40
2019-05-20T03:43:38.685Z,16.60
2019-05-20T03:44:38.705Z,17.50
2019-05-20T03:45:38.725Z,16.10
2019-05-20T03:46:38.746Z,16.50
2019-05-20T03:47:38.761Z,16.00
2019-05-20T03:48:38.791Z,16.80
2019-05-20T03:49:38.801Z,16.60
2019-05-20T03:50:38.821Z,16.80
2019-05-20T03:51:38.842Z,16.20
2019-05-20T03:52:38.873Z,16.80
2019-05-20T03:53:38.881Z,16.30
2019-05-20T03:54:38.903Z,16.00
2019-05-20T03:55:38.924Z,16.40
2019-05-20T03:56:38.943Z,16.80
2019-05-20T03:57:38.966Z,16.30
2019-05-20T03:58:38.989Z,16.00
2019-05-20T03:59:39.010Z,16.30
2019-05-20T04:00:39.025Z,16.10
2019-05-20T04:01:39.048Z,15.40
2019-05-20T04:02:39.068Z,15.70
2019-05-20T04:03:39.090Z,16.10
2019-05-20T04:04:39.112Z,17.50
2019-05-20T04:05:39.165Z,16.70
2019-05-20T04:06:39.234Z,16.30
2019-05-20T04:07:39.211Z,17.80
2019-05-20T04:08:39.275Z,16.40
2019-05-20T04:09:39.277Z,17.10
2019-05-20T04:10:39.267Z,17.40
2019-05-20T04:11:39.265Z,16.80
2019-05-20T04:12:39.274Z,17.30
2019-05-20T04:13:39.296Z,17.20
2019-05-20T04:14:39.312Z,17.50
2019-05-20T04:15:39.338Z,17.90
2019-05-20T04:16:39.353Z,16.90
2019-05-20T04:17:39.377Z,17.00
2019-05-20T04:18:39.404Z,17.90
2019-05-20T04:19:39.419Z,17.10
2019-05-20T04:20:39.437Z,17.40
2019-05-20T04:21:39.459Z,17.40
2019-05-20T04:22:39.484Z,16.40
2019-05-20T04:23:39.501Z,17.20
2019-05-20T04:24:39.520Z,17.70
2019-05-20T04:25:39.540Z,17.70
2019-05-20T04:26:39.561Z,17.90
2019-05-20T04:27:39.581Z,18.50
2019-05-20T04:28:39.605Z,17.90
2019-05-20T04:29:39.622Z,18.70
2019-05-20T04:30:39.653Z,18.20
2019-05-20T04:31:39.663Z,18.70
2019-05-20T04:32:39.719Z,18.20
2019-05-20T04:33:39.704Z,17.20
2019-05-20T04:34:39.726Z,17.70
2019-05-20T04:35:39.750Z,18.20
2019-05-20T04:36:39.767Z,17.70
2019-05-20T04:37:39.787Z,18.00
2019-05-20T04:38:39.811Z,18.30
2019-05-20T04:39:39.829Z,19.20
2019-05-20T04:40:39.852Z,19.40
2019-05-20T04:41:39.871Z,18.30
2019-05-20T04:42:39.890Z,18.50
2019-05-20T04:43:39.912Z,18.80
2019-05-20T04:44:39.931Z,17.60
2019-05-20T04:45:39.957Z,18.20
2019-05-20T04:46:39.976Z,18.90
2019-05-20T04:47:39.996Z,18.60
2019-05-20T04:48:40.025Z,19.40
2019-05-20T04:49:40.038Z,20.60
2019-05-20T04:50:40.058Z,18.50
2019-05-20T04:51:40.082Z,18.60
2019-05-20T04:52:40.101Z,18.20
2019-05-20T04:53:40.118Z,19.30
2019-05-20T04:54:40.144Z,19.30
2019-05-20T04:55:40.163Z,19.40
2019-05-20T04:56:40.186Z,18.90
2019-05-20T04:57:40.220Z,19.20
2019-05-20T04:58:40.224Z,19.80
2019-05-20T04:59:40.244Z,19.20
2019-05-20T05:00:40.266Z,18.80
2019-05-20T05:01:40.287Z,19.50
2019-05-20T05:02:43.361Z,18.10
2019-05-20T05:03:40.331Z,19.00
2019-05-20T05:04:40.350Z,19.30
2019-05-20T05:05:40.375Z,18.70
2019-05-20T05:06:40.393Z,20.10
2019-05-20T05:07:40.409Z,19.20
2019-05-20T05:08:40.432Z,19.20
2019-05-20T05:09:40.451Z,19.80
2019-05-20T05:10:40.475Z,18.90
2019-05-20T05:11:40.495Z,17.10
2019-05-20T05:12:40.515Z,18.20
2019-05-20T05:13:40.536Z,17.90
2019-05-20T05:14:40.575Z,19.30
2019-05-20T05:15:40.579Z,17.10
2019-05-20T05:16:40.602Z,18.40
2019-05-20T05:17:40.621Z,16.90
2019-05-20T05:18:40.641Z,17.80
2019-05-20T05:19:40.663Z,16.20
2019-05-20T05:20:40.718Z,16.40
2019-05-20T05:21:40.709Z,18.10
2019-05-20T05:22:40.727Z,17.70
2019-05-20T05:23:40.747Z,16.80
2019-05-20T05:24:40.767Z,16.50
2019-05-20T05:25:40.786Z,17.00
2019-05-20T05:26:40.811Z,16.10
2019-05-20T05:27:40.831Z,16.30
2019-05-20T05:28:40.851Z,15.80
2019-05-20T05:29:40.872Z,15.70
2019-05-20T05:30:40.894Z,15.90
2019-05-20T05:31:40.915Z,16.10
2019-05-20T05:32:40.942Z,16.00
2019-05-20T05:33:40.957Z,15.10
2019-05-20T05:34:40.980Z,16.10
2019-05-20T05:35:52.311Z,15.70
2019-05-20T05:36:41.056Z,16.20
2019-05-20T05:37:41.097Z,15.50
2019-05-20T05:38:41.089Z,14.40
2019-05-20T05:39:41.163Z,14.60
2019-05-20T05:40:41.160Z,14.50
2019-05-20T05:41:41.163Z,14.90
2019-05-20T05:42:41.154Z,14.80
2019-05-20T05:43:41.171Z,14.40
2019-05-20T05:44:41.191Z,13.60
2019-05-20T05:45:41.216Z,13.60
2019-05-20T05:46:41.235Z,13.40
2019-05-20T05:47:41.265Z,13.80
2019-05-20T05:48:41.282Z,13.40
2019-05-20T05:49:41.300Z,13.60
2019-05-20T05:50:41.329Z,14.30
2019-05-20T05:51:41.355Z,13.60
2019-05-20T05:52:41.365Z,14.00
2019-05-20T05:53:41.386Z,13.30
2019-05-20T05:54:41.407Z,13.80
2019-05-20T05:55:41.429Z,14.20
2019-05-20T05:56:41.451Z,14.10
2019-05-20T05:57:41.474Z,13.50
2019-05-20T05:58:41.494Z,12.30
2019-05-20T05:59:41.513Z,13.80
2019-05-20T06:00:41.542Z,13.80
2019-05-20T06:01:41.563Z,13.60
2019-05-20T06:02:41.581Z,12.50
2019-05-20T06:03:41.602Z,12.40
2019-05-20T06:04:41.621Z,12.20
2019-05-20T06:05:41.646Z,12.20
2019-05-20T06:06:41.666Z,11.70
2019-05-20T06:07:41.698Z,11.90
2019-05-20T06:08:41.712Z,11.70
2019-05-20T06:09:41.733Z,12.20
2019-05-20T06:10:41.757Z,11.90
2019-05-20T06:11:41.777Z,11.80
2019-05-20T06:12:41.800Z,12.00
2019-05-20T06:13:41.821Z,11.10
2019-05-20T06:14:41.844Z,10.50
2019-05-20T06:15:41.865Z,11.50
2019-05-20T06:16:41.888Z,10.10
2019-05-20T06:17:41.911Z,10.70
2019-05-20T06:18:41.934Z,10.70
2019-05-20T06:19:41.966Z,10.40
2019-05-20T06:20:41.979Z,10.80
2019-05-20T06:21:41.999Z,9.40
2019-05-20T06:22:42.023Z,10.40
2019-05-20T06:23:42.047Z,9.70
2019-05-20T06:24:42.068Z,10.00
2019-05-20T06:25:42.098Z,10.00
2019-05-20T06:26:42.114Z,10.20
2019-05-20T06:27:42.184Z,10.40
2019-05-20T06:28:42.162Z,9.40
2019-05-20T06:29:42.228Z,10.00
2019-05-20T06:30:42.213Z,10.80
2019-05-20T06:31:42.233Z,9.50
2019-05-20T06:32:42.262Z,12.20
2019-05-20T06:33:42.280Z,9.40
2019-05-20T06:34:43.120Z,8.50
2019-05-20T06:35:42.333Z,8.80
2019-05-20T06:36:42.353Z,8.20
2019-05-20T06:37:42.378Z,9.10
2019-05-20T06:38:42.404Z,9.10
2019-05-20T06:39:42.429Z,7.90
2019-05-20T06:40:42.456Z,7.50
2019-05-20T06:41:42.478Z,7.90
2019-05-20T06:42:42.504Z,7.60
2019-05-20T06:43:42.530Z,7.30
2019-05-20T06:44:52.409Z,7.90
2019-05-20T06:45:42.588Z,8.20
2019-05-20T06:46:42.609Z,7.90
2019-05-20T06:47:42.631Z,7.40
2019-05-20T06:48:42.683Z,7.90
2019-05-20T06:49:42.687Z,8.20
2019-05-20T06:50:42.712Z,7.70
2019-05-20T06:51:42.739Z,7.60
2019-05-20T06:52:42.764Z,7.70
2019-05-20T06:53:42.792Z,7.00
2019-05-20T06:54:42.818Z,7.60
2019-05-20T06:55:42.847Z,7.50
2019-05-20T06:56:43.056Z,7.90
2019-05-20T06:57:42.907Z,7.60
2019-05-20T06:58:42.992Z,8.00
2019-05-20T06:59:42.998Z,7.70
2019-05-20T07:00:43.039Z,7.80
2019-05-20T07:01:43.072Z,8.00
2019-05-20T07:02:43.061Z,7.80
2019-05-20T07:03:43.065Z,7.90
2019-05-20T07:04:43.091Z,8.50
2019-05-20T07:05:43.119Z,7.20
2019-05-20T07:06:47.218Z,8.20
2019-05-20T07:07:43.172Z,7.10
2019-05-20T07:08:43.199Z,7.10
2019-05-20T07:09:43.237Z,7.70
2019-05-20T07:10:43.255Z,7.50
2019-05-20T07:11:52.381Z,8.30
2019-05-20T07:12:43.314Z,7.60
2019-05-20T07:13:43.339Z,7.20
2019-05-20T07:14:43.369Z,7.40
2019-05-20T07:15:43.396Z,7.50
2019-05-20T07:16:43.432Z,7.50
2019-05-20T07:17:43.456Z,7.20
2019-05-20T07:18:43.482Z,7.80
2019-05-20T07:19:43.512Z,8.00
2019-05-20T07:20:43.542Z,7.20
2019-05-20T07:21:43.568Z,7.30
2019-05-20T07:22:55.408Z,6.70
2019-05-20T07:23:43.629Z,7.20
2019-05-20T07:24:43.656Z,7.10
2019-05-20T07:25:43.685Z,7.10
2019-05-20T07:26:43.716Z,7.00
2019-05-20T07:27:43.748Z,7.30
2019-05-20T07:28:43.790Z,6.80
2019-05-20T07:29:43.815Z,6.70
2019-05-20T07:30:43.838Z,7.30
2019-05-20T07:31:43.868Z,6.60
2019-05-20T07:32:43.893Z,6.90
2019-05-20T07:33:43.941Z,6.40
2019-05-20T07:34:43.957Z,6.00
2019-05-20T07:35:43.993Z,6.50
2019-05-20T07:36:44.031Z,6.00
2019-05-20T07:37:44.051Z,6.10
2019-05-20T07:38:44.080Z,5.60
2019-05-20T07:39:44.110Z,5.70
2019-05-20T07:40:44.144Z,6.20
2019-05-20T07:41:44.170Z,5.90
2019-05-20T07:42:44.202Z,5.70
2019-05-20T07:43:44.233Z,6.40
2019-05-20T07:44:44.286Z,6.10
2019-05-20T07:45:44.295Z,5.90
2019-05-20T07:46:44.331Z,6.10
2019-05-20T07:47:44.362Z,6.60
2019-05-20T07:48:44.398Z,5.70
2019-05-20T07:49:44.428Z,6.00
2019-05-20T07:50:44.465Z,6.10
2019-05-20T07:51:44.488Z,6.50
2019-05-20T07:52:44.519Z,5.80
2019-05-20T07:53:44.577Z,6.40
2019-05-20T07:54:44.582Z,6.70
2019-05-20T07:55:44.615Z,5.60
2019-05-20T07:56:44.661Z,6.20
2019-05-20T07:57:44.678Z,6.90
2019-05-20T07:58:44.710Z,7.40
2019-05-20T07:59:44.749Z,6.40
2019-05-20T08:00:44.772Z,6.50
2019-05-20T08:01:44.806Z,8.00
2019-05-20T08:02:44.913Z,6.50
2019-05-20T08:03:44.924Z,6.10
2019-05-20T08:04:45.022Z,9.40
2019-05-20T08:05:44.990Z,5.80
2019-05-20T08:06:45.002Z,5.60
2019-05-20T08:07:51.901Z,6.40
2019-05-20T08:08:45.028Z,5.90
2019-05-20T08:09:46.285Z,5.80
2019-05-20T08:10:45.133Z,5.70
2019-05-20T08:11:45.125Z,7.00
2019-05-20T08:12:45.156Z,5.30
2019-05-20T08:13:45.188Z,5.60
2019-05-20T08:14:45.221Z,5.70
2019-05-20T08:15:45.255Z,5.90
2019-05-20T08:16:45.287Z,5.60
2019-05-20T08:17:45.320Z,5.70
2019-05-20T08:18:45.361Z,5.50
2019-05-20T08:19:45.385Z,5.40
2019-05-20T08:20:45.418Z,5.30
2019-05-20T08:21:45.450Z,5.10
2019-05-20T08:22:45.488Z,5.80
2019-05-20T08:23:45.529Z,5.30
2019-05-20T08:24:45.556Z,5.60
2019-05-20T08:25:45.583Z,5.20
2019-05-20T08:26:45.634Z,4.90
2019-05-20T08:27:45.651Z,5.00
2019-05-20T08:28:45.696Z,4.70
2019-05-20T08:29:45.726Z,4.50
2019-05-20T08:30:45.751Z,4.40
2019-05-20T08:31:45.798Z,4.70
2019-05-20T08:32:45.821Z,4.70
2019-05-20T08:33:45.856Z,4.70
2019-05-20T08:34:45.887Z,4.70
2019-05-20T08:35:45.919Z,4.80
2019-05-20T08:36:45.955Z,4.30
2019-05-20T08:37:46.278Z,4.50
2019-05-20T08:38:46.019Z,4.90
2019-05-20T08:39:46.052Z,4.40
2019-05-20T08:40:48.475Z,4.30
2019-05-20T08:41:46.116Z,4.70
2019-05-20T08:42:46.150Z,4.60
2019-05-20T08:43:46.202Z,4.60
2019-05-20T08:44:46.218Z,4.70
2019-05-20T08:45:46.250Z,4.30
2019-05-20T08:46:46.284Z,4.00
2019-05-20T08:47:46.317Z,4.50
2019-05-20T08:48:46.347Z,4.30
2019-05-20T08:49:46.648Z,4.00
2019-05-20T08:50:46.411Z,4.00
2019-05-20T08:51:46.453Z,4.40
2019-05-20T08:52:46.481Z,4.50
2019-05-20T08:53:46.508Z,4.80
2019-05-20T08:54:46.543Z,4.40
2019-05-20T08:55:46.575Z,4.80
2019-05-20T08:56:49.303Z,4.30
2019-05-20T08:57:46.637Z,4.30
2019-05-20T08:58:46.678Z,4.40
2019-05-20T08:59:46.701Z,4.80
2019-05-20T09:00:46.734Z,4.70
2019-05-20T09:01:46.852Z,4.30
2019-05-20T09:02:46.848Z,4.40
2019-05-20T09:03:46.866Z,4.20
2019-05-20T09:04:46.913Z,4.40
2019-05-20T09:05:46.914Z,4.00
2019-05-20T09:06:46.930Z,3.60
2019-05-20T09:08:01.605Z,3.60
2019-05-20T09:08:47.002Z,4.10
2019-05-20T09:09:47.035Z,3.30
2019-05-20T09:10:47.064Z,3.60
2019-05-20T09:11:47.956Z,3.70
2019-05-20T09:12:47.136Z,3.90
2019-05-20T09:13:47.191Z,3.90
2019-05-20T09:14:47.197Z,3.70
2019-05-20T09:15:47.236Z,3.70
2019-05-20T09:16:47.289Z,3.70
2019-05-20T09:17:47.304Z,3.70
2019-05-20T09:18:47.340Z,3.60
2019-05-20T09:19:47.442Z,3.40
2019-05-20T09:20:47.407Z,3.80
2019-05-20T09:21:47.434Z,3.70
2019-05-20T09:22:47.479Z,3.40
2019-05-20T09:23:47.512Z,3.40
2019-05-20T09:24:47.685Z,3.70
2019-05-20T09:25:47.570Z,3.60
2019-05-20T09:26:47.692Z,3.60
2019-05-20T09:27:47.640Z,3.70
2019-05-20T09:28:47.674Z,3.70
2019-05-20T09:29:47.712Z,3.90
2019-05-20T09:30:47.785Z,3.30
2019-05-20T09:31:47.784Z,3.70
2019-05-20T09:32:47.813Z,3.70
2019-05-20T09:33:47.858Z,3.60
2019-05-20T09:34:47.880Z,3.40
2019-05-20T09:35:47.911Z,3.60
2019-05-20T09:36:47.941Z,3.10
2019-05-20T09:37:47.978Z,3.40
2019-05-20T09:38:48.011Z,3.30
2019-05-20T09:39:48.045Z,3.70
2019-05-20T09:40:48.100Z,3.50
2019-05-20T09:41:48.113Z,3.60
2019-05-20T09:42:48.143Z,3.40
2019-05-20T09:43:48.184Z,3.50
2019-05-20T09:44:48.211Z,3.60
2019-05-20T09:46:05.269Z,3.40
2019-05-20T09:46:48.280Z,4.00
2019-05-20T09:47:48.310Z,3.70
2019-05-20T09:48:48.346Z,3.50
2019-05-20T09:49:48.378Z,3.20
2019-05-20T09:50:48.416Z,3.50
2019-05-20T09:51:48.445Z,3.90
2019-05-20T09:52:48.476Z,3.60
2019-05-20T09:53:48.517Z,3.50
2019-05-20T09:54:48.545Z,3.50
2019-05-20T09:55:48.580Z,3.50
2019-05-20T09:56:48.616Z,3.40
2019-05-20T09:57:48.647Z,4.00
2019-05-20T09:58:48.692Z,3.70
2019-05-20T09:59:48.771Z,3.50
2019-05-20T10:00:48.792Z,3.60
2019-05-20T10:01:50.050Z,3.60
2019-05-20T10:02:48.867Z,4.00
2019-05-20T10:03:48.861Z,4.40
2019-05-20T10:04:48.892Z,3.30
2019-05-20T10:05:48.929Z,3.50
2019-05-20T10:06:48.965Z,3.20
2019-05-20T10:07:49.000Z,3.30
2019-05-20T10:08:49.036Z,3.90
2019-05-20T10:09:49.074Z,3.40
2019-05-20T10:10:49.109Z,3.60
2019-05-20T10:11:49.149Z,3.20
2019-05-20T10:12:49.185Z,3.40
2019-05-20T10:13:49.223Z,3.30
2019-05-20T10:14:52.659Z,3.30
2019-05-20T10:15:49.351Z,3.50
2019-05-20T10:16:49.343Z,3.20
2019-05-20T10:17:49.375Z,3.20
2019-05-20T10:18:49.417Z,3.50
2019-05-20T10:19:49.454Z,3.50
2019-05-20T10:20:49.501Z,3.30
2019-05-20T10:21:49.529Z,3.20
2019-05-20T10:22:49.568Z,3.30
2019-05-20T10:23:49.607Z,3.30
2019-05-20T10:24:49.646Z,3.50
2019-05-20T10:25:49.683Z,3.20
2019-05-20T10:26:49.724Z,3.40
2019-05-20T10:27:49.761Z,3.30
2019-05-20T10:28:49.801Z,3.60
2019-05-20T10:29:49.840Z,3.70
2019-05-20T10:30:49.879Z,3.30
2019-05-20T10:31:49.918Z,4.40
2019-05-20T10:32:49.959Z,3.70
2019-05-20T10:33:50.000Z,3.20
2019-05-20T10:34:50.044Z,3.50
2019-05-20T10:35:50.078Z,3.40
2019-05-20T10:36:50.117Z,3.30
2019-05-20T10:37:50.166Z,3.20
2019-05-20T10:38:58.474Z,3.40
2019-05-20T10:39:50.237Z,3.30
2019-05-20T10:40:50.278Z,3.70
2019-05-20T10:41:50.317Z,3.40
2019-05-20T10:42:50.362Z,3.50
2019-05-20T10:43:50.400Z,3.20
2019-05-20T10:44:50.440Z,3.50
2019-05-20T10:45:50.476Z,4.40
2019-05-20T10:46:50.531Z,4.00
2019-05-20T10:47:50.559Z,3.60
2019-05-20T10:48:50.598Z,3.30
2019-05-20T10:49:50.670Z,3.70
2019-05-20T10:50:50.738Z,5.10
2019-05-20T10:51:50.777Z,3.80
2019-05-20T10:52:50.780Z,4.00
2019-05-20T10:53:50.801Z,3.40
2019-05-20T10:54:50.834Z,3.10
2019-05-20T10:55:50.874Z,3.40
2019-05-20T10:56:50.915Z,3.80
2019-05-20T10:57:50.954Z,4.20
2019-05-20T10:58:50.993Z,3.30
2019-05-20T10:59:51.037Z,3.20
2019-05-20T11:01:01.948Z,3.70
2019-05-20T11:01:51.114Z,3.50
2019-05-20T11:02:51.167Z,3.40
2019-05-20T11:03:51.443Z,3.50
2019-05-20T11:04:51.268Z,3.50
2019-05-20T11:05:51.296Z,4.00
2019-05-20T11:06:51.313Z,3.70
2019-05-20T11:07:51.403Z,3.60
2019-05-20T11:08:51.387Z,3.90
2019-05-20T11:09:51.437Z,3.90
2019-05-20T11:10:51.508Z,3.70
2019-05-20T11:11:51.499Z,3.60
2019-05-20T11:12:51.539Z,3.70
2019-05-20T11:13:51.573Z,3.40
2019-05-20T11:14:51.619Z,3.60
2019-05-20T11:15:51.644Z,3.30
2019-05-20T11:16:51.677Z,3.40
2019-05-20T11:17:51.714Z,3.40
2019-05-20T11:18:51.747Z,3.60
2019-05-20T11:19:51.781Z,3.50
2019-05-20T11:20:51.825Z,5.00
2019-05-20T11:21:51.858Z,3.90
2019-05-20T11:22:51.886Z,3.50
2019-05-20T11:23:51.923Z,3.90
2019-05-20T11:24:51.967Z,3.70
2019-05-20T11:25:51.981Z,5.70
2019-05-20T11:26:52.018Z,4.00
2019-05-20T11:27:52.045Z,3.80
2019-05-20T11:28:52.081Z,4.00
2019-05-20T11:29:52.109Z,3.60
2019-05-20T11:30:52.138Z,3.70
2019-05-20T11:31:52.170Z,3.10
2019-05-20T11:32:52.202Z,3.50
2019-05-20T11:33:52.233Z,3.30
2019-05-20T11:34:52.265Z,4.00
2019-05-20T11:35:52.293Z,3.60
2019-05-20T11:36:52.326Z,3.50
2019-05-20T11:37:52.354Z,3.60
2019-05-20T11:38:52.383Z,3.90
2019-05-20T11:39:52.416Z,3.80
2019-05-20T11:40:52.445Z,4.00
2019-05-20T11:41:54.257Z,3.40
2019-05-20T11:42:52.505Z,4.10
2019-05-20T11:43:52.537Z,3.80
2019-05-20T11:44:52.646Z,4.20
2019-05-20T11:45:52.651Z,4.00
2019-05-20T11:46:52.646Z,3.80
2019-05-20T11:47:52.733Z,3.80
2019-05-20T11:48:52.721Z,3.50
2019-05-20T11:49:52.728Z,3.50
2019-05-20T11:50:52.753Z,3.60
2019-05-20T11:51:52.770Z,3.90
2019-05-20T11:52:52.825Z,3.40
2019-05-20T11:53:52.837Z,3.60
2019-05-20T11:54:52.861Z,4.10
2019-05-20T11:55:52.889Z,3.30
2019-05-20T11:56:52.920Z,3.80
2019-05-20T11:57:52.948Z,3.90
2019-05-20T11:58:52.981Z,4.10
2019-05-20T11:59:53.008Z,3.90
2019-05-20T12:00:53.037Z,3.90
2019-05-20T12:01:53.072Z,4.20
2019-05-20T12:02:53.109Z,4.00
2019-05-20T12:03:53.126Z,3.80
2019-05-20T12:04:53.155Z,4.00
2019-05-20T12:05:53.217Z,3.60
2019-05-20T12:06:53.213Z,4.40
2019-05-20T12:07:53.245Z,3.50
2019-05-20T12:08:53.270Z,4.00
2019-05-20T12:09:53.301Z,4.10
2019-05-20T12:10:53.328Z,3.50
2019-05-20T12:11:53.362Z,3.70
2019-05-20T12:12:53.390Z,3.70
2019-05-20T12:13:53.418Z,3.80
2019-05-20T12:14:53.466Z,4.00
2019-05-20T12:15:53.475Z,4.40
2019-05-20T12:16:53.506Z,3.90
2019-05-20T12:17:53.534Z,4.40
2019-05-20T12:18:53.563Z,4.10
2019-05-20T12:19:53.590Z,4.10
2019-05-20T12:20:53.648Z,4.40
2019-05-20T12:21:53.650Z,4.20
2019-05-20T12:22:53.679Z,3.90
2019-05-20T12:23:53.711Z,3.90
2019-05-20T12:24:53.739Z,4.30
2019-05-20T12:25:53.766Z,3.80
2019-05-20T12:26:53.794Z,4.50
2019-05-20T12:27:53.835Z,4.20
2019-05-20T12:28:53.858Z,4.30
2019-05-20T12:29:53.884Z,4.10
2019-05-20T12:30:53.910Z,4.10
2019-05-20T12:31:53.940Z,4.20
2019-05-20T12:33:17.185Z,4.20
2019-05-20T12:33:53.996Z,4.20
2019-05-20T12:34:54.038Z,4.30
2019-05-20T12:35:54.060Z,4.10
2019-05-20T12:36:54.086Z,4.10
2019-05-20T12:37:54.111Z,3.90
2019-05-20T12:38:54.161Z,4.20
2019-05-20T12:40:06.513Z,3.90
2019-05-20T12:40:54.202Z,3.90
2019-05-20T12:41:54.261Z,4.20
2019-05-20T12:42:54.259Z,4.40
2019-05-20T12:44:11.109Z,4.00
2019-05-20T12:44:54.316Z,3.80
2019-05-20T12:45:54.346Z,4.20
2019-05-20T12:46:54.376Z,4.10
2019-05-20T12:47:54.407Z,3.70
2019-05-20T12:48:54.479Z,4.10
2019-05-20T12:49:54.462Z,4.20
2019-05-20T12:50:54.566Z,3.90
2019-05-20T12:51:54.573Z,4.40
2019-05-20T12:52:54.573Z,4.10
2019-05-20T12:53:54.640Z,4.20
2019-05-20T12:55:07.109Z,4.60
2019-05-20T12:55:54.639Z,4.10
2019-05-20T12:56:54.686Z,4.20
2019-05-20T12:57:54.696Z,4.20
2019-05-20T12:58:54.728Z,3.90
2019-05-20T12:59:54.755Z,4.10
2019-05-20T13:00:54.781Z,4.50
2019-05-20T13:01:54.811Z,4.20
2019-05-20T13:02:54.842Z,4.50
2019-05-20T13:03:54.868Z,4.20
2019-05-20T13:04:54.899Z,4.60
2019-05-20T13:05:54.930Z,4.60